createdAt,value
2017-09-20T00:00:03.313Z,9.21
2017-09-20T00:00:07.373Z,9.21
2017-09-20T00:00:11.310Z,9.21
2017-09-20T00:00:15.623Z,9.21
2017-09-20T00:00:19.680Z,9.21
2017-09-20T00:00:23.870Z,9.21
2017-09-20T00:00:27.932Z,9.21
2017-09-20T00:00:32.119Z,9.21
2017-09-20T00:00:35.935Z,9.21
2017-09-20T00:00:40.242Z,9.22
2017-09-20T00:00:44.180Z,9.22
2017-09-20T00:00:48.119Z,9.22
2017-09-20T00:00:51.924Z,9.22
2017-09-20T00:00:55.986Z,9.21
2017-09-20T00:01:00.076Z,9.21
2017-09-20T00:01:04.136Z,9.22
2017-09-20T00:01:08.329Z,9.21
2017-09-20T00:01:12.512Z,9.22
2017-09-20T00:01:16.457Z,9.21
2017-09-20T00:01:20.388Z,9.22
2017-09-20T00:01:24.578Z,9.21
2017-09-20T00:01:28.514Z,9.21
2017-09-20T00:01:32.445Z,9.21
2017-09-20T00:01:36.502Z,9.21
2017-09-20T00:01:40.691Z,9.22
2017-09-20T00:01:44.879Z,9.21
2017-09-20T00:01:48.944Z,9.22
2017-09-20T00:01:53.001Z,9.22
2017-09-20T00:01:56.808Z,9.22
2017-09-20T00:02:00.868Z,9.22
2017-09-20T00:02:05.152Z,9.21
2017-09-20T00:02:09.459Z,9.21
2017-09-20T00:02:13.390Z,9.22
2017-09-20T00:02:17.578Z,9.22
2017-09-20T00:02:21.883Z,9.21
2017-09-20T00:02:25.813Z,9.21
2017-09-20T00:02:30.000Z,9.22
2017-09-20T00:02:33.809Z,9.21
2017-09-20T00:02:37.993Z,9.22
2017-09-20T00:02:42.177Z,9.22
2017-09-20T00:02:46.249Z,9.21
2017-09-20T00:02:50.331Z,9.21
2017-09-20T00:02:54.399Z,9.22
2017-09-20T00:02:58.337Z,9.21
2017-09-20T00:03:02.402Z,9.21
2017-09-20T00:03:06.327Z,9.22
2017-09-20T00:03:10.395Z,9.22
2017-09-20T00:03:14.454Z,9.21
2017-09-20T00:03:18.633Z,9.22
2017-09-20T00:03:22.820Z,9.22
2017-09-20T00:03:27.252Z,9.22
2017-09-20T00:03:31.436Z,9.22
2017-09-20T00:03:35.498Z,9.22
2017-09-20T00:03:39.684Z,9.22
2017-09-20T00:03:43.612Z,9.22
2017-09-20T00:03:47.683Z,9.22
2017-09-20T00:03:51.738Z,9.22
2017-09-20T00:03:55.800Z,9.22
2017-09-20T00:03:59.738Z,9.22
2017-09-20T00:04:03.797Z,9.22
2017-09-20T00:04:07.862Z,9.22
2017-09-20T00:04:12.052Z,9.22
2017-09-20T00:04:16.129Z,9.22
2017-09-20T00:04:20.093Z,9.22
2017-09-20T00:04:24.025Z,9.22
2017-09-20T00:04:28.214Z,9.22
2017-09-20T00:04:32.407Z,9.21
2017-09-20T00:04:36.464Z,9.21
2017-09-20T00:04:40.649Z,9.21
2017-09-20T00:04:44.720Z,9.21
2017-09-20T00:04:48.901Z,9.22
2017-09-20T00:04:53.224Z,9.22
2017-09-20T00:04:57.161Z,9.22
2017-09-20T00:05:01.096Z,9.22
2017-09-20T00:05:05.208Z,9.21
2017-09-20T00:05:09.386Z,9.21
2017-09-20T00:05:13.446Z,9.21
2017-09-20T00:05:17.636Z,9.21
2017-09-20T00:05:21.570Z,9.22
2017-09-20T00:05:25.759Z,9.22
2017-09-20T00:05:29.818Z,9.21
2017-09-20T00:05:33.753Z,9.21
2017-09-20T00:05:37.686Z,9.21
2017-09-20T00:05:41.491Z,9.21
2017-09-20T00:05:45.554Z,9.21
2017-09-20T00:05:49.363Z,9.21
2017-09-20T00:05:53.456Z,9.21
2017-09-20T00:05:57.514Z,9.2
2017-09-20T00:06:01.326Z,9.2
2017-09-20T00:06:05.643Z,9.21
2017-09-20T00:06:09.703Z,9.2
2017-09-20T00:06:13.765Z,9.21
2017-09-20T00:06:18.074Z,9.2
2017-09-20T00:06:22.261Z,9.2
2017-09-20T00:06:26.202Z,9.21
2017-09-20T00:06:30.258Z,9.21
2017-09-20T00:06:34.317Z,9.2
2017-09-20T00:06:38.128Z,9.21
2017-09-20T00:06:42.182Z,9.21
2017-09-20T00:06:46.367Z,9.21
2017-09-20T00:06:50.177Z,9.22
2017-09-20T00:06:53.990Z,9.21
2017-09-20T00:06:58.058Z,9.21
2017-09-20T00:07:02.144Z,9.21
2017-09-20T00:07:06.209Z,9.2
2017-09-20T00:07:10.016Z,9.21
2017-09-20T00:07:14.325Z,9.21
2017-09-20T00:07:18.509Z,9.2
2017-09-20T00:07:22.821Z,9.21
2017-09-20T00:07:26.883Z,9.2
2017-09-20T00:07:31.197Z,9.2
2017-09-20T00:07:35.508Z,9.21
2017-09-20T00:07:39.700Z,9.2
2017-09-20T00:07:43.885Z,9.2
2017-09-20T00:07:47.942Z,9.2
2017-09-20T00:07:52.179Z,9.2
2017-09-20T00:07:56.366Z,9.2
2017-09-20T00:08:00.174Z,9.2
2017-09-20T00:08:04.335Z,9.2
2017-09-20T00:08:08.397Z,9.2
2017-09-20T00:08:12.457Z,9.2
2017-09-20T00:08:16.767Z,9.21
2017-09-20T00:08:20.452Z,9.2
2017-09-20T00:08:24.513Z,9.2
2017-09-20T00:08:28.447Z,9.2
2017-09-20T00:08:32.501Z,9.2
2017-09-20T00:08:36.558Z,9.2
2017-09-20T00:08:40.741Z,9.2
2017-09-20T00:08:44.677Z,9.2
2017-09-20T00:08:48.734Z,9.2
2017-09-20T00:08:53.038Z,9.2
2017-09-20T00:08:56.846Z,9.19
2017-09-20T00:09:00.658Z,9.2
2017-09-20T00:09:04.470Z,9.19
2017-09-20T00:09:08.531Z,9.2
2017-09-20T00:09:12.842Z,9.2
2017-09-20T00:09:16.776Z,9.19
2017-09-20T00:09:20.835Z,9.19
2017-09-20T00:09:24.897Z,9.19
2017-09-20T00:09:28.835Z,9.2
2017-09-20T00:09:33.045Z,9.2
2017-09-20T00:09:37.117Z,9.19
2017-09-20T00:09:41.301Z,9.2
2017-09-20T00:09:45.490Z,9.19
2017-09-20T00:09:49.555Z,9.19
2017-09-20T00:09:53.617Z,9.19
2017-09-20T00:09:57.303Z,9.2
2017-09-20T00:10:01.355Z,9.19
2017-09-20T00:10:05.169Z,9.18
2017-09-20T00:10:09.260Z,9.19
2017-09-20T00:10:13.327Z,9.19
2017-09-20T00:10:17.641Z,9.18
2017-09-20T00:10:21.693Z,9.19
2017-09-20T00:10:25.373Z,9.18
2017-09-20T00:10:29.309Z,9.19
2017-09-20T00:10:33.238Z,9.19
2017-09-20T00:10:37.296Z,9.18
2017-09-20T00:10:41.234Z,9.19
2017-09-20T00:10:45.542Z,9.18
2017-09-20T00:10:49.473Z,9.18
2017-09-20T00:10:53.406Z,9.18
2017-09-20T00:10:57.335Z,9.17
2017-09-20T00:11:01.147Z,9.18
2017-09-20T00:11:05.435Z,9.17
2017-09-20T00:11:09.621Z,9.17
2017-09-20T00:11:13.968Z,9.17
2017-09-20T00:11:17.647Z,9.17
2017-09-20T00:11:21.453Z,9.16
2017-09-20T00:11:25.512Z,9.17
2017-09-20T00:11:29.442Z,9.16
2017-09-20T00:11:33.755Z,9.18
2017-09-20T00:11:37.814Z,9.17
2017-09-20T00:11:41.996Z,9.17
2017-09-20T00:11:45.932Z,9.17
2017-09-20T00:11:49.981Z,9.16
2017-09-20T00:11:53.787Z,9.16
2017-09-20T00:11:57.723Z,9.16
2017-09-20T00:12:01.528Z,9.17
2017-09-20T00:12:05.339Z,9.16
2017-09-20T00:12:09.151Z,9.16
2017-09-20T00:12:13.624Z,9.16
2017-09-20T00:12:17.686Z,9.16
2017-09-20T00:12:21.864Z,9.17
2017-09-20T00:12:26.046Z,9.16
2017-09-20T00:12:29.856Z,9.15
2017-09-20T00:12:33.787Z,9.16
2017-09-20T00:12:37.844Z,9.16
2017-09-20T00:12:42.168Z,9.15
2017-09-20T00:12:46.233Z,9.16
2017-09-20T00:12:50.165Z,9.15
2017-09-20T00:12:54.098Z,9.16
2017-09-20T00:12:58.032Z,9.15
2017-09-20T00:13:01.971Z,9.16
2017-09-20T00:13:05.778Z,9.16
2017-09-20T00:13:09.713Z,9.14
2017-09-20T00:13:13.905Z,9.15
2017-09-20T00:13:18.206Z,9.15
2017-09-20T00:13:22.384Z,9.15
2017-09-20T00:13:26.442Z,9.15
2017-09-20T00:13:30.258Z,9.14
2017-09-20T00:13:34.311Z,9.15
2017-09-20T00:13:38.244Z,9.15
2017-09-20T00:13:42.297Z,9.15
2017-09-20T00:13:46.629Z,9.15
2017-09-20T00:13:50.687Z,9.15
2017-09-20T00:13:54.623Z,9.15
2017-09-20T00:13:58.691Z,9.15
2017-09-20T00:14:03.108Z,9.15
2017-09-20T00:14:06.920Z,9.15
2017-09-20T00:14:10.857Z,9.14
2017-09-20T00:14:15.045Z,9.15
2017-09-20T00:14:18.992Z,9.15
2017-09-20T00:14:22.799Z,9.15
2017-09-20T00:14:26.605Z,9.15
2017-09-20T00:14:30.789Z,9.14
2017-09-20T00:14:34.725Z,9.14
2017-09-20T00:14:38.658Z,9.15
2017-09-20T00:14:42.713Z,9.14
2017-09-20T00:14:46.649Z,9.15
2017-09-20T00:14:50.829Z,9.14
2017-09-20T00:14:55.141Z,9.15
2017-09-20T00:14:59.077Z,9.14
2017-09-20T00:15:03.267Z,9.15
2017-09-20T00:15:07.202Z,9.14
2017-09-20T00:15:11.137Z,9.14
2017-09-20T00:15:15.193Z,9.15
2017-09-20T00:15:19.415Z,9.13
2017-09-20T00:15:23.603Z,9.14
2017-09-20T00:15:27.791Z,9.14
2017-09-20T00:15:32.108Z,9.14
2017-09-20T00:15:36.040Z,9.13
2017-09-20T00:15:40.350Z,9.13
2017-09-20T00:15:44.284Z,9.14
2017-09-20T00:15:48.478Z,9.12
2017-09-20T00:15:52.541Z,9.14
2017-09-20T00:15:56.603Z,9.13
2017-09-20T00:16:00.410Z,9.13
2017-09-20T00:16:04.679Z,9.13
2017-09-20T00:16:08.609Z,9.13
2017-09-20T00:16:12.789Z,9.14
2017-09-20T00:16:16.967Z,9.13
2017-09-20T00:16:20.910Z,9.12
2017-09-20T00:16:24.967Z,9.13
2017-09-20T00:16:28.778Z,9.12
2017-09-20T00:16:32.717Z,9.14
2017-09-20T00:16:37.030Z,9.13
2017-09-20T00:16:40.965Z,9.12
2017-09-20T00:16:44.771Z,9.14
2017-09-20T00:16:48.831Z,9.13
2017-09-20T00:16:52.766Z,9.12
2017-09-20T00:16:56.837Z,9.14
2017-09-20T00:17:01.022Z,9.13
2017-09-20T00:17:04.953Z,9.12
2017-09-20T00:17:08.767Z,9.13
2017-09-20T00:17:12.699Z,9.12
2017-09-20T00:17:16.637Z,9.12
2017-09-20T00:17:20.822Z,9.14
2017-09-20T00:17:24.759Z,9.13
2017-09-20T00:17:29.087Z,9.13
2017-09-20T00:17:33.269Z,9.13
2017-09-20T00:17:37.341Z,9.13
2017-09-20T00:17:41.404Z,9.14
2017-09-20T00:17:45.337Z,9.13
2017-09-20T00:17:49.141Z,9.13
2017-09-20T00:17:53.318Z,9.13
2017-09-20T00:17:57.257Z,9.14
2017-09-20T00:18:01.437Z,9.13
2017-09-20T00:18:05.478Z,9.14
2017-09-20T00:18:09.406Z,9.13
2017-09-20T00:18:13.590Z,9.13
2017-09-20T00:18:17.775Z,9.13
2017-09-20T00:18:21.834Z,9.12
2017-09-20T00:18:25.772Z,9.13
2017-09-20T00:18:30.243Z,9.14
2017-09-20T00:18:34.303Z,9.13
2017-09-20T00:18:38.239Z,9.14
2017-09-20T00:18:42.295Z,9.14
2017-09-20T00:18:46.231Z,9.13
2017-09-20T00:18:50.286Z,9.14
2017-09-20T00:18:54.093Z,9.14
2017-09-20T00:18:58.160Z,9.13
2017-09-20T00:19:02.096Z,9.13
2017-09-20T00:19:06.160Z,9.14
2017-09-20T00:19:10.099Z,9.14
2017-09-20T00:19:14.275Z,9.12
2017-09-20T00:19:18.343Z,9.13
2017-09-20T00:19:22.410Z,9.14
2017-09-20T00:19:26.601Z,9.14
2017-09-20T00:19:30.785Z,9.13
2017-09-20T00:19:34.843Z,9.13
2017-09-20T00:19:38.907Z,9.13
2017-09-20T00:19:42.967Z,9.13
2017-09-20T00:19:46.896Z,9.13
2017-09-20T00:19:51.207Z,9.13
2017-09-20T00:19:55.397Z,9.13
2017-09-20T00:19:59.460Z,9.13
2017-09-20T00:20:03.399Z,9.14
2017-09-20T00:20:07.205Z,9.13
2017-09-20T00:20:11.021Z,9.14
2017-09-20T00:20:14.956Z,9.14
2017-09-20T00:20:19.011Z,9.13
2017-09-20T00:20:22.950Z,9.14
2017-09-20T00:20:27.136Z,9.13
2017-09-20T00:20:30.946Z,9.13
2017-09-20T00:20:35.137Z,9.13
2017-09-20T00:20:39.201Z,9.14
2017-09-20T00:20:43.002Z,9.13
2017-09-20T00:20:47.184Z,9.14
2017-09-20T00:20:51.368Z,9.14
2017-09-20T00:20:55.441Z,9.14
2017-09-20T00:20:59.373Z,9.13
2017-09-20T00:21:03.434Z,9.14
2017-09-20T00:21:07.369Z,9.14
2017-09-20T00:21:11.301Z,9.12
2017-09-20T00:21:15.359Z,9.13
2017-09-20T00:21:19.168Z,9.13
2017-09-20T00:21:23.354Z,9.13
2017-09-20T00:21:27.291Z,9.14
2017-09-20T00:21:31.356Z,9.12
2017-09-20T00:21:35.289Z,9.13
2017-09-20T00:21:39.476Z,9.12
2017-09-20T00:21:43.535Z,9.13
2017-09-20T00:21:47.346Z,9.13
2017-09-20T00:21:51.290Z,9.13
2017-09-20T00:21:55.108Z,9.12
2017-09-20T00:21:59.288Z,9.13
2017-09-20T00:22:03.345Z,9.13
2017-09-20T00:22:07.405Z,9.12
2017-09-20T00:22:11.342Z,9.13
2017-09-20T00:22:15.525Z,9.12
2017-09-20T00:22:19.712Z,9.12
2017-09-20T00:22:23.647Z,9.13
2017-09-20T00:22:27.847Z,9.12
2017-09-20T00:22:31.650Z,9.12
2017-09-20T00:22:35.580Z,9.14
2017-09-20T00:22:39.518Z,9.12
2017-09-20T00:22:43.586Z,9.12
2017-09-20T00:22:47.518Z,9.12
2017-09-20T00:22:51.698Z,9.12
2017-09-20T00:22:55.510Z,9.12
2017-09-20T00:22:59.450Z,9.12
2017-09-20T00:23:03.500Z,9.12
2017-09-20T00:23:07.433Z,9.12
2017-09-20T00:23:11.370Z,9.12
2017-09-20T00:23:15.433Z,9.11
2017-09-20T00:23:19.739Z,9.12
2017-09-20T00:23:23.917Z,9.12
2017-09-20T00:23:27.727Z,9.12
2017-09-20T00:23:31.956Z,9.12
2017-09-20T00:23:36.135Z,9.12
2017-09-20T00:23:40.315Z,9.12
2017-09-20T00:23:44.246Z,9.12
2017-09-20T00:23:48.468Z,9.12
2017-09-20T00:23:52.647Z,9.13
2017-09-20T00:23:56.709Z,9.12
2017-09-20T00:24:00.898Z,9.12
2017-09-20T00:24:05.290Z,9.13
2017-09-20T00:24:09.220Z,9.13
2017-09-20T00:24:13.154Z,9.12
2017-09-20T00:24:17.219Z,9.12
2017-09-20T00:24:21.151Z,9.12
2017-09-20T00:24:25.081Z,9.12
2017-09-20T00:24:29.269Z,9.12
2017-09-20T00:24:33.211Z,9.12
2017-09-20T00:24:37.279Z,9.12
2017-09-20T00:24:41.465Z,9.13
2017-09-20T00:24:45.528Z,9.12
2017-09-20T00:24:49.468Z,9.11
2017-09-20T00:24:53.531Z,9.13
2017-09-20T00:24:57.462Z,9.12
2017-09-20T00:25:01.533Z,9.12
2017-09-20T00:25:05.210Z,9.12
2017-09-20T00:25:09.515Z,9.11
2017-09-20T00:25:13.323Z,9.11
2017-09-20T00:25:17.381Z,9.11
2017-09-20T00:25:21.440Z,9.12
2017-09-20T00:25:25.380Z,9.12
2017-09-20T00:25:29.187Z,9.11
2017-09-20T00:25:33.250Z,9.11
2017-09-20T00:25:37.442Z,9.12
2017-09-20T00:25:41.624Z,9.12
2017-09-20T00:25:45.805Z,9.12
2017-09-20T00:25:49.986Z,9.12
2017-09-20T00:25:53.790Z,9.12
2017-09-20T00:25:57.730Z,9.12
2017-09-20T00:26:01.787Z,9.12
2017-09-20T00:26:05.722Z,9.12
2017-09-20T00:26:09.909Z,9.11
2017-09-20T00:26:13.844Z,9.12
2017-09-20T00:26:17.903Z,9.11
2017-09-20T00:26:21.837Z,9.12
2017-09-20T00:26:25.925Z,9.12
2017-09-20T00:26:29.989Z,9.12
2017-09-20T00:26:34.177Z,9.11
2017-09-20T00:26:38.368Z,9.12
2017-09-20T00:26:42.426Z,9.11
2017-09-20T00:26:46.730Z,9.12
2017-09-20T00:26:50.664Z,9.12
2017-09-20T00:26:54.849Z,9.12
2017-09-20T00:26:59.041Z,9.12
2017-09-20T00:27:02.853Z,9.11
2017-09-20T00:27:07.173Z,9.11
2017-09-20T00:27:11.223Z,9.12
2017-09-20T00:27:15.030Z,9.12
2017-09-20T00:27:18.965Z,9.12
2017-09-20T00:27:23.279Z,9.11
2017-09-20T00:27:27.470Z,9.11
2017-09-20T00:27:31.776Z,9.12
2017-09-20T00:27:35.457Z,9.11
2017-09-20T00:27:39.646Z,9.11
2017-09-20T00:27:43.702Z,9.12
2017-09-20T00:27:47.887Z,9.12
2017-09-20T00:27:51.942Z,9.12
2017-09-20T00:27:56.260Z,9.13
2017-09-20T00:28:00.319Z,9.12
2017-09-20T00:28:04.254Z,9.11
2017-09-20T00:28:08.323Z,9.12
2017-09-20T00:28:12.383Z,9.12
2017-09-20T00:28:16.319Z,9.12
2017-09-20T00:28:20.253Z,9.12
2017-09-20T00:28:24.562Z,9.12
2017-09-20T00:28:28.505Z,9.12
2017-09-20T00:28:32.432Z,9.13
2017-09-20T00:28:36.747Z,9.13
2017-09-20T00:28:40.803Z,9.12
2017-09-20T00:28:44.743Z,9.12
2017-09-20T00:28:48.800Z,9.13
2017-09-20T00:28:52.863Z,9.12
2017-09-20T00:28:56.672Z,9.12
2017-09-20T00:29:00.605Z,9.12
2017-09-20T00:29:04.818Z,9.12
2017-09-20T00:29:08.759Z,9.12
2017-09-20T00:29:12.700Z,9.12
2017-09-20T00:29:16.894Z,9.12
2017-09-20T00:29:20.823Z,9.12
2017-09-20T00:29:25.128Z,9.12
2017-09-20T00:29:29.069Z,9.12
2017-09-20T00:29:33.127Z,9.12
2017-09-20T00:29:37.187Z,9.12
2017-09-20T00:29:41.495Z,9.12
2017-09-20T00:29:45.302Z,9.12
2017-09-20T00:29:49.497Z,9.13
2017-09-20T00:29:53.431Z,9.12
2017-09-20T00:29:57.242Z,9.12
2017-09-20T00:30:01.556Z,9.12
2017-09-20T00:30:05.544Z,9.13
2017-09-20T00:30:09.474Z,9.13
2017-09-20T00:30:13.531Z,9.13
2017-09-20T00:30:17.595Z,9.12
2017-09-20T00:30:21.529Z,9.12
2017-09-20T00:30:25.585Z,9.13
2017-09-20T00:30:30.021Z,9.13
2017-09-20T00:30:34.205Z,9.13
2017-09-20T00:30:38.149Z,9.13
2017-09-20T00:30:42.467Z,9.12
2017-09-20T00:30:46.271Z,9.12
2017-09-20T00:30:50.212Z,9.12
2017-09-20T00:30:54.148Z,9.12
2017-09-20T00:30:58.337Z,9.13
2017-09-20T00:31:02.395Z,9.13
2017-09-20T00:31:06.209Z,9.12
2017-09-20T00:31:10.269Z,9.13
2017-09-20T00:31:14.332Z,9.12
2017-09-20T00:31:18.142Z,9.12
2017-09-20T00:31:22.075Z,9.12
2017-09-20T00:31:26.260Z,9.11
2017-09-20T00:31:30.068Z,9.12
2017-09-20T00:31:34.380Z,9.12
2017-09-20T00:31:38.314Z,9.11
2017-09-20T00:31:42.501Z,9.12
2017-09-20T00:31:46.561Z,9.11
2017-09-20T00:31:50.246Z,9.12
2017-09-20T00:31:54.053Z,9.12
2017-09-20T00:31:58.366Z,9.12
2017-09-20T00:32:02.419Z,9.11
2017-09-20T00:32:06.231Z,9.12
2017-09-20T00:32:10.418Z,9.12
2017-09-20T00:32:14.347Z,9.12
2017-09-20T00:32:18.281Z,9.1
2017-09-20T00:32:22.465Z,9.12
2017-09-20T00:32:26.397Z,9.12
2017-09-20T00:32:30.468Z,9.11
2017-09-20T00:32:34.407Z,9.12
2017-09-20T00:32:38.342Z,9.11
2017-09-20T00:32:42.152Z,9.11
2017-09-20T00:32:46.351Z,9.11
2017-09-20T00:32:50.660Z,9.11
2017-09-20T00:32:54.711Z,9.12
2017-09-20T00:32:58.784Z,9.11
2017-09-20T00:33:02.893Z,9.11
2017-09-20T00:33:06.827Z,9.12
2017-09-20T00:33:10.888Z,9.11
2017-09-20T00:33:15.326Z,9.12
2017-09-20T00:33:19.387Z,9.12
2017-09-20T00:33:23.320Z,9.11
2017-09-20T00:33:27.127Z,9.12
2017-09-20T00:33:31.201Z,9.12
2017-09-20T00:33:35.383Z,9.13
2017-09-20T00:33:39.562Z,9.12
2017-09-20T00:33:43.623Z,9.12
2017-09-20T00:33:47.812Z,9.12
2017-09-20T00:33:52.002Z,9.11
2017-09-20T00:33:55.938Z,9.12
2017-09-20T00:34:00.125Z,9.12
2017-09-20T00:34:04.187Z,9.12
2017-09-20T00:34:08.248Z,9.13
2017-09-20T00:34:12.062Z,9.12
2017-09-20T00:34:15.875Z,9.11
2017-09-20T00:34:20.065Z,9.12
2017-09-20T00:34:23.997Z,9.12
2017-09-20T00:34:28.060Z,9.12
2017-09-20T00:34:32.249Z,9.12
2017-09-20T00:34:36.308Z,9.13
2017-09-20T00:34:40.492Z,9.12
2017-09-20T00:34:44.557Z,9.12
2017-09-20T00:34:48.616Z,9.12
2017-09-20T00:34:52.668Z,9.12
2017-09-20T00:34:56.727Z,9.12
2017-09-20T00:35:00.785Z,9.12
2017-09-20T00:35:05.049Z,9.12
2017-09-20T00:35:09.106Z,9.12
2017-09-20T00:35:13.414Z,9.12
2017-09-20T00:35:17.223Z,9.12
2017-09-20T00:35:21.158Z,9.12
2017-09-20T00:35:24.961Z,9.11
2017-09-20T00:35:28.645Z,9.11
2017-09-20T00:35:32.709Z,9.11
2017-09-20T00:35:36.644Z,9.12
2017-09-20T00:35:40.705Z,9.13
2017-09-20T00:35:44.636Z,9.11
2017-09-20T00:35:48.699Z,9.12
2017-09-20T00:35:52.759Z,9.12
2017-09-20T00:35:57.061Z,9.12
2017-09-20T00:36:01.115Z,9.12
2017-09-20T00:36:05.152Z,9.12
2017-09-20T00:36:09.084Z,9.12
2017-09-20T00:36:13.016Z,9.12
2017-09-20T00:36:16.695Z,9.13
2017-09-20T00:36:20.874Z,9.12
2017-09-20T00:36:24.939Z,9.13
2017-09-20T00:36:28.747Z,9.12
2017-09-20T00:36:32.810Z,9.13
2017-09-20T00:36:36.878Z,9.12
2017-09-20T00:36:41.063Z,9.14
2017-09-20T00:36:45.240Z,9.13
2017-09-20T00:36:49.304Z,9.14
2017-09-20T00:36:53.231Z,9.14
2017-09-20T00:36:57.200Z,9.13
2017-09-20T00:37:01.131Z,9.12
2017-09-20T00:37:05.320Z,9.13
2017-09-20T00:37:09.377Z,9.14
2017-09-20T00:37:13.314Z,9.14
2017-09-20T00:37:17.379Z,9.13
2017-09-20T00:37:21.312Z,9.14
2017-09-20T00:37:25.249Z,9.13
2017-09-20T00:37:29.337Z,9.14
2017-09-20T00:37:33.396Z,9.14
2017-09-20T00:37:37.335Z,9.13
2017-09-20T00:37:41.140Z,9.13
2017-09-20T00:37:45.203Z,9.13
2017-09-20T00:37:49.265Z,9.12
2017-09-20T00:37:53.451Z,9.14
2017-09-20T00:37:57.538Z,9.13
2017-09-20T00:38:01.608Z,9.13
2017-09-20T00:38:05.714Z,9.14
2017-09-20T00:38:09.772Z,9.14
2017-09-20T00:38:13.961Z,9.14
2017-09-20T00:38:18.018Z,9.14
2017-09-20T00:38:22.071Z,9.14
2017-09-20T00:38:26.256Z,9.14
2017-09-20T00:38:30.186Z,9.12
2017-09-20T00:38:34.368Z,9.13
2017-09-20T00:38:38.424Z,9.13
2017-09-20T00:38:42.738Z,9.13
2017-09-20T00:38:46.675Z,9.13
2017-09-20T00:38:50.877Z,9.13
2017-09-20T00:38:54.686Z,9.13
2017-09-20T00:38:58.490Z,9.12
2017-09-20T00:39:02.302Z,9.13
2017-09-20T00:39:06.361Z,9.14
2017-09-20T00:39:10.552Z,9.13
2017-09-20T00:39:14.739Z,9.14
2017-09-20T00:39:19.060Z,9.14
2017-09-20T00:39:22.871Z,9.13
2017-09-20T00:39:26.803Z,9.14
2017-09-20T00:39:30.616Z,9.14
2017-09-20T00:39:34.678Z,9.14
2017-09-20T00:39:38.738Z,9.14
2017-09-20T00:39:42.669Z,9.14
2017-09-20T00:39:46.726Z,9.13
2017-09-20T00:39:50.541Z,9.13
2017-09-20T00:39:54.471Z,9.13
2017-09-20T00:39:58.403Z,9.14
2017-09-20T00:40:02.590Z,9.13
2017-09-20T00:40:06.398Z,9.12
2017-09-20T00:40:10.458Z,9.13
2017-09-20T00:40:14.766Z,9.13
2017-09-20T00:40:18.820Z,9.14
2017-09-20T00:40:22.757Z,9.13
2017-09-20T00:40:26.971Z,9.13
2017-09-20T00:40:30.908Z,9.14
2017-09-20T00:40:34.963Z,9.13
2017-09-20T00:40:39.158Z,9.12
2017-09-20T00:40:43.344Z,9.13
2017-09-20T00:40:47.023Z,9.13
2017-09-20T00:40:51.079Z,9.14
2017-09-20T00:40:55.398Z,9.13
2017-09-20T00:40:59.209Z,9.12
2017-09-20T00:41:03.395Z,9.13
2017-09-20T00:41:07.077Z,9.12
2017-09-20T00:41:11.137Z,9.12
2017-09-20T00:41:15.361Z,9.13
2017-09-20T00:41:19.295Z,9.12
2017-09-20T00:41:23.351Z,9.12
2017-09-20T00:41:27.696Z,9.12
2017-09-20T00:41:31.628Z,9.14
2017-09-20T00:41:35.440Z,9.13
2017-09-20T00:41:39.505Z,9.13
2017-09-20T00:41:43.443Z,9.12
2017-09-20T00:41:47.630Z,9.13
2017-09-20T00:41:51.818Z,9.13
2017-09-20T00:41:56.009Z,9.11
2017-09-20T00:41:59.817Z,9.11
2017-09-20T00:42:03.677Z,9.11
2017-09-20T00:42:07.986Z,9.12
2017-09-20T00:42:11.921Z,9.13
2017-09-20T00:42:15.976Z,9.12
2017-09-20T00:42:20.037Z,9.11
2017-09-20T00:42:24.090Z,9.12
2017-09-20T00:42:28.153Z,9.12
2017-09-20T00:42:31.962Z,9.11
2017-09-20T00:42:36.275Z,9.11
2017-09-20T00:42:40.336Z,9.11
2017-09-20T00:42:44.144Z,9.11
2017-09-20T00:42:48.078Z,9.12
2017-09-20T00:42:52.136Z,9.1
2017-09-20T00:42:56.065Z,9.11
2017-09-20T00:42:59.881Z,9.11
2017-09-20T00:43:03.561Z,9.11
2017-09-20T00:43:07.620Z,9.12
2017-09-20T00:43:11.557Z,9.1
2017-09-20T00:43:15.739Z,9.11
2017-09-20T00:43:19.799Z,9.1
2017-09-20T00:43:23.989Z,9.11
2017-09-20T00:43:27.792Z,9.11
2017-09-20T00:43:31.989Z,9.11
2017-09-20T00:43:36.043Z,9.11
2017-09-20T00:43:40.103Z,9.1
2017-09-20T00:43:44.168Z,9.11
2017-09-20T00:43:48.233Z,9.1
2017-09-20T00:43:52.414Z,9.11
2017-09-20T00:43:56.474Z,9.1
2017-09-20T00:44:00.535Z,9.11
2017-09-20T00:44:04.466Z,9.1
2017-09-20T00:44:08.401Z,9.1
2017-09-20T00:44:12.458Z,9.1
2017-09-20T00:44:16.777Z,9.1
2017-09-20T00:44:20.707Z,9.11
2017-09-20T00:44:24.769Z,9.1
2017-09-20T00:44:28.705Z,9.1
2017-09-20T00:44:32.517Z,9.1
2017-09-20T00:44:36.584Z,9.1
2017-09-20T00:44:40.649Z,9.09
2017-09-20T00:44:44.709Z,9.1
2017-09-20T00:44:48.903Z,9.1
2017-09-20T00:44:53.089Z,9.1
2017-09-20T00:44:57.149Z,9.09
2017-09-20T00:45:01.327Z,9.09
2017-09-20T00:45:05.387Z,9.1
2017-09-20T00:45:09.693Z,9.09
2017-09-20T00:45:13.881Z,9.1
2017-09-20T00:45:17.690Z,9.09
2017-09-20T00:45:22.135Z,9.09
2017-09-20T00:45:26.443Z,9.1
2017-09-20T00:45:30.125Z,9.09
2017-09-20T00:45:34.064Z,9.09
2017-09-20T00:45:38.382Z,9.1
2017-09-20T00:45:42.186Z,9.1
2017-09-20T00:45:46.368Z,9.1
2017-09-20T00:45:50.430Z,9.1
2017-09-20T00:45:54.240Z,9.1
2017-09-20T00:45:58.178Z,9.09
2017-09-20T00:46:01.987Z,9.1
2017-09-20T00:46:06.051Z,9.1
2017-09-20T00:46:09.738Z,9.09
2017-09-20T00:46:14.043Z,9.09
2017-09-20T00:46:17.981Z,9.09
2017-09-20T00:46:21.785Z,9.09
2017-09-20T00:46:26.003Z,9.09
2017-09-20T00:46:30.186Z,9.08
2017-09-20T00:46:33.995Z,9.08
2017-09-20T00:46:38.058Z,9.08
2017-09-20T00:46:41.989Z,9.09
2017-09-20T00:46:45.934Z,9.09
2017-09-20T00:46:50.128Z,9.09
2017-09-20T00:46:54.220Z,9.09
2017-09-20T00:46:58.279Z,9.08
2017-09-20T00:47:01.963Z,9.08
2017-09-20T00:47:06.024Z,9.09
2017-09-20T00:47:10.343Z,9.09
2017-09-20T00:47:14.664Z,9.08
2017-09-20T00:47:18.969Z,9.08
2017-09-20T00:47:22.898Z,9.08
2017-09-20T00:47:27.082Z,9.08
2017-09-20T00:47:31.145Z,9.08
2017-09-20T00:47:34.950Z,9.08
2017-09-20T00:47:39.136Z,9.08
2017-09-20T00:47:43.583Z,9.08
2017-09-20T00:47:47.642Z,9.08
2017-09-20T00:47:51.949Z,9.08
2017-09-20T00:47:56.139Z,9.08
2017-09-20T00:48:00.206Z,9.08
2017-09-20T00:48:04.221Z,9.08
2017-09-20T00:48:08.281Z,9.08
2017-09-20T00:48:12.346Z,9.07
2017-09-20T00:48:16.661Z,9.07
2017-09-20T00:48:20.970Z,9.08
2017-09-20T00:48:25.158Z,9.07
2017-09-20T00:48:29.218Z,9.07
2017-09-20T00:48:33.025Z,9.06
2017-09-20T00:48:36.832Z,9.07
2017-09-20T00:48:40.769Z,9.07
2017-09-20T00:48:44.827Z,9.07
2017-09-20T00:48:49.014Z,9.06
2017-09-20T00:48:53.075Z,9.06
2017-09-20T00:48:56.880Z,9.06
2017-09-20T00:49:00.947Z,9.06
2017-09-20T00:49:04.809Z,9.05
2017-09-20T00:49:09.003Z,9.06
2017-09-20T00:49:12.938Z,9.06
2017-09-20T00:49:17.000Z,9.06
2017-09-20T00:49:20.932Z,9.05
2017-09-20T00:49:25.235Z,9.05
2017-09-20T00:49:29.294Z,9.05
2017-09-20T00:49:33.483Z,9.05
2017-09-20T00:49:37.292Z,9.06
2017-09-20T00:49:41.357Z,9.05
2017-09-20T00:49:45.418Z,9.05
2017-09-20T00:49:49.732Z,9.05
2017-09-20T00:49:53.664Z,9.05
2017-09-20T00:49:57.589Z,9.06
2017-09-20T00:50:01.397Z,9.05
2017-09-20T00:50:05.337Z,9.05
2017-09-20T00:50:09.396Z,9.04
2017-09-20T00:50:13.202Z,9.04
2017-09-20T00:50:17.516Z,9.05
2017-09-20T00:50:21.453Z,9.05
2017-09-20T00:50:25.419Z,9.04
2017-09-20T00:50:29.349Z,9.04
2017-09-20T00:50:33.289Z,9.04
2017-09-20T00:50:37.225Z,9.04
2017-09-20T00:50:41.536Z,9.04
2017-09-20T00:50:45.466Z,9.04
2017-09-20T00:50:49.647Z,9.04
2017-09-20T00:50:53.585Z,9.04
2017-09-20T00:50:58.017Z,9.03
2017-09-20T00:51:02.299Z,9.03
2017-09-20T00:51:06.229Z,9.03
2017-09-20T00:51:10.162Z,9.04
2017-09-20T00:51:14.226Z,9.03
2017-09-20T00:51:18.407Z,9.03
2017-09-20T00:51:54.575Z,9.02
2017-09-20T00:51:58.389Z,9.03
2017-09-20T00:52:02.580Z,9.02
2017-09-20T00:52:06.644Z,9.02
2017-09-20T00:52:10.829Z,9.02
2017-09-20T00:52:14.764Z,9.02
2017-09-20T00:52:18.953Z,9.02
2017-09-20T00:52:23.259Z,9.02
2017-09-20T00:52:27.187Z,9.01
2017-09-20T00:52:31.126Z,9.01
2017-09-20T00:52:35.434Z,9.01
2017-09-20T00:52:39.609Z,9.01
2017-09-20T00:52:43.541Z,9.02
2017-09-20T00:52:47.607Z,9.02
2017-09-20T00:52:51.414Z,9.01
2017-09-20T00:52:55.470Z,9
2017-09-20T00:52:59.408Z,9.01
2017-09-20T00:53:03.263Z,9.02
2017-09-20T00:53:07.217Z,9.01
2017-09-20T00:53:11.277Z,9
2017-09-20T00:53:15.584Z,9
2017-09-20T00:53:19.775Z,9
2017-09-20T00:53:23.849Z,9
2017-09-20T00:53:27.536Z,9
2017-09-20T00:53:31.463Z,9
2017-09-20T00:53:35.534Z,9
2017-09-20T00:53:39.470Z,9
2017-09-20T00:53:43.523Z,9
2017-09-20T00:53:47.702Z,9
2017-09-20T00:53:51.891Z,8.98
2017-09-20T00:53:55.581Z,9
2017-09-20T00:53:59.773Z,8.98
2017-09-20T00:54:03.966Z,8.98
2017-09-20T00:54:07.896Z,8.98
2017-09-20T00:54:12.202Z,8.98
2017-09-20T00:54:16.129Z,8.97
2017-09-20T00:54:20.056Z,8.98
2017-09-20T00:54:23.997Z,8.97
2017-09-20T00:54:27.925Z,8.97
2017-09-20T00:54:32.233Z,8.96
2017-09-20T00:54:36.542Z,8.96